createdAt,value
2018-09-30T00:01:30.256Z,14.82
2018-09-30T00:03:59.283Z,14.59
2018-09-30T00:06:29.141Z,14.74
2018-09-30T00:08:58.141Z,14.65
2018-09-30T00:11:27.841Z,14.51
2018-09-30T00:13:56.818Z,14.46
2018-09-30T00:16:25.925Z,14.38
2018-09-30T00:18:55.530Z,14.49
2018-09-30T00:21:24.917Z,14.48
2018-09-30T00:23:59.054Z,14.42
2018-09-30T00:26:33.364Z,14.40
2018-09-30T00:29:02.450Z,14.46
2018-09-30T00:31:31.893Z,14.55
2018-09-30T00:34:06.004Z,14.53
2018-09-30T00:36:35.426Z,14.55
2018-09-30T00:39:05.569Z,14.63
2018-09-30T00:41:34.545Z,14.67
2018-09-30T00:44:06.528Z,14.71
2018-09-30T00:46:35.550Z,14.68
2018-09-30T00:49:04.470Z,14.67
2018-09-30T00:51:33.495Z,14.63
2018-09-30T00:54:02.718Z,14.56
2018-09-30T00:56:31.973Z,14.54
2018-09-30T00:59:01.129Z,14.46
2018-09-30T01:01:30.272Z,14.46
2018-09-30T01:03:59.268Z,14.50
2018-09-30T01:06:28.978Z,14.49
2018-09-30T01:08:58.077Z,14.49
2018-09-30T01:11:27.585Z,14.41
2018-09-30T01:13:56.819Z,14.49
2018-09-30T01:16:25.978Z,14.43
2018-09-30T01:18:54.921Z,14.43
2018-09-30T01:21:23.835Z,14.40
2018-09-30T01:23:52.824Z,14.31
2018-09-30T01:26:21.764Z,14.22
2018-09-30T01:28:50.841Z,14.12
2018-09-30T01:31:19.919Z,13.99
2018-09-30T01:33:48.869Z,14.05
2018-09-30T01:36:17.803Z,13.96
2018-09-30T01:38:46.796Z,13.96
2018-09-30T01:41:15.829Z,13.96
2018-09-30T01:43:45.361Z,13.98
2018-09-30T01:46:14.909Z,13.85
2018-09-30T01:48:43.848Z,13.93
2018-09-30T01:51:12.816Z,13.90
2018-09-30T01:53:41.859Z,14.01
2018-09-30T01:56:11.160Z,13.93
2018-09-30T01:58:40.554Z,13.93
2018-09-30T02:01:09.840Z,13.94
2018-09-30T02:03:40.172Z,13.97
2018-09-30T02:06:09.318Z,13.87
2018-09-30T02:08:38.516Z,13.84
2018-09-30T02:11:07.752Z,13.81
2018-09-30T02:13:36.754Z,13.77
2018-09-30T02:16:05.833Z,13.74
2018-09-30T02:18:34.828Z,13.63
2018-09-30T02:21:03.877Z,13.54
2018-09-30T02:23:33.041Z,13.54
2018-09-30T02:26:02.306Z,13.53
2018-09-30T02:28:31.265Z,13.44
2018-09-30T02:31:00.320Z,13.46
2018-09-30T02:33:29.978Z,13.42
2018-09-30T02:35:59.091Z,13.47
2018-09-30T02:38:28.741Z,13.36
2018-09-30T02:40:58.121Z,13.26
2018-09-30T02:43:27.792Z,13.23
2018-09-30T02:45:56.840Z,13.21
2018-09-30T02:48:26.012Z,13.26
2018-09-30T02:50:55.081Z,13.28
2018-09-30T02:53:24.300Z,13.29
2018-09-30T02:55:53.336Z,13.29
2018-09-30T02:58:22.734Z,13.15
2018-09-30T03:00:51.871Z,13.09
2018-09-30T03:03:20.908Z,13.05
2018-09-30T03:05:49.898Z,13.04
2018-09-30T03:08:23.983Z,13.14
2018-09-30T03:10:53.801Z,13.21
2018-09-30T03:13:23.260Z,13.17
2018-09-30T03:15:52.507Z,13.22
2018-09-30T03:18:21.490Z,13.19
2018-09-30T03:20:50.444Z,13.24
2018-09-30T03:23:19.541Z,13.29
2018-09-30T03:25:48.781Z,13.24
2018-09-30T03:28:17.823Z,13.22
2018-09-30T03:30:46.991Z,13.17
2018-09-30T03:33:15.935Z,13.11
2018-09-30T03:35:44.928Z,13.14
2018-09-30T03:38:14.024Z,13.25
2018-09-30T03:40:43.004Z,13.32
2018-09-30T03:43:12.451Z,13.27
2018-09-30T03:45:42.596Z,13.33
2018-09-30T03:48:11.599Z,13.26
2018-09-30T03:50:40.674Z,13.32
2018-09-30T03:53:13.747Z,13.28
2018-09-30T03:55:42.769Z,13.19
2018-09-30T03:58:11.952Z,13.07
2018-09-30T04:00:41.482Z,13.24
2018-09-30T04:03:10.691Z,13.05
2018-09-30T04:05:40.671Z,12.90
2018-09-30T04:08:09.759Z,12.69
2018-09-30T04:10:38.760Z,12.86
2018-09-30T04:13:10.835Z,12.83
2018-09-30T04:15:40.277Z,12.67
2018-09-30T04:18:09.339Z,12.61
2018-09-30T04:20:38.619Z,12.77
2018-09-30T04:23:07.690Z,12.77
2018-09-30T04:25:38.260Z,12.71
2018-09-30T04:28:07.540Z,12.52
2018-09-30T04:30:36.601Z,12.48
2018-09-30T04:33:05.928Z,12.38
2018-09-30T04:35:34.977Z,12.49
2018-09-30T04:38:04.042Z,12.54
2018-09-30T04:40:33.886Z,12.58
2018-09-30T04:43:02.857Z,12.53
2018-09-30T04:45:31.745Z,12.56
2018-09-30T04:48:00.713Z,12.62
2018-09-30T04:50:30.269Z,12.56
2018-09-30T04:52:59.244Z,12.39
2018-09-30T04:55:29.887Z,12.33
2018-09-30T04:57:58.836Z,12.26
2018-09-30T05:00:28.208Z,12.14
2018-09-30T05:02:57.745Z,12.19
2018-09-30T05:05:27.104Z,12.15
2018-09-30T05:07:56.130Z,12.08
2018-09-30T05:10:25.679Z,12.02
2018-09-30T05:12:54.728Z,12.32
2018-09-30T05:15:24.138Z,12.33
2018-09-30T05:17:53.136Z,12.25
2018-09-30T05:20:22.044Z,12.30
2018-09-30T05:22:51.107Z,12.59
2018-09-30T05:25:20.061Z,12.89
2018-09-30T05:27:48.980Z,13.24
2018-09-30T05:30:20.136Z,13.66
2018-09-30T05:32:49.066Z,14.05
2018-09-30T05:35:19.938Z,14.12
2018-09-30T05:37:48.939Z,14.38
2018-09-30T05:40:20.702Z,14.77
2018-09-30T05:42:50.127Z,15.17
2018-09-30T05:45:19.956Z,15.37
2018-09-30T05:47:48.929Z,15.74
2018-09-30T05:50:20.388Z,15.94
2018-09-30T05:52:49.525Z,16.26
2018-09-30T05:55:21.897Z,16.42
2018-09-30T05:57:50.880Z,16.65
2018-09-30T06:00:20.333Z,16.85
2018-09-30T06:02:49.368Z,17.08
2018-09-30T06:05:21.483Z,17.27
2018-09-30T06:07:50.436Z,17.60
2018-09-30T06:10:21.838Z,17.76
2018-09-30T06:12:50.815Z,17.94
2018-09-30T06:15:19.842Z,18.08
2018-09-30T06:17:48.782Z,18.36
2018-09-30T06:20:23.477Z,18.84
2018-09-30T06:22:52.993Z,18.84
2018-09-30T06:25:21.993Z,19.18
2018-09-30T06:27:50.992Z,19.27
2018-09-30T06:30:21.686Z,19.60
2018-09-30T06:32:50.646Z,19.97
2018-09-30T06:35:20.379Z,20.21
2018-09-30T06:37:49.345Z,20.48
2018-09-30T06:40:21.785Z,20.58
2018-09-30T06:42:51.583Z,20.82
2018-09-30T06:45:20.622Z,20.66
2018-09-30T06:47:49.662Z,20.89
2018-09-30T06:50:21.432Z,21.16
2018-09-30T06:52:50.483Z,21.16
2018-09-30T06:55:19.818Z,20.58
2018-09-30T06:57:49.184Z,20.97
2018-09-30T07:00:20.491Z,20.59
2018-09-30T07:02:49.491Z,21.34
2018-09-30T07:05:20.673Z,21.97
2018-09-30T07:07:50.657Z,22.54
2018-09-30T07:10:21.222Z,22.33
2018-09-30T07:12:50.245Z,23.01
2018-09-30T07:15:20.179Z,23.53
2018-09-30T07:17:49.971Z,23.87
2018-09-30T07:20:22.036Z,23.91
2018-09-30T07:22:51.173Z,24.09
2018-09-30T07:25:20.131Z,23.87
2018-09-30T07:27:49.433Z,23.82
2018-09-30T07:30:20.984Z,24.31
2018-09-30T07:32:50.618Z,24.78
2018-09-30T07:35:19.731Z,24.36
2018-09-30T07:37:48.765Z,23.80
2018-09-30T07:40:20.852Z,23.75
2018-09-30T07:42:49.906Z,22.42
2018-09-30T07:45:21.648Z,22.72
2018-09-30T07:47:50.673Z,22.94
2018-09-30T07:50:23.543Z,23.72
2018-09-30T07:52:52.570Z,23.99
2018-09-30T07:55:21.613Z,24.85
2018-09-30T07:57:50.552Z,25.04
2018-09-30T08:00:23.230Z,25.26
2018-09-30T08:02:52.180Z,25.61
2018-09-30T08:05:24.042Z,25.47
2018-09-30T08:07:53.013Z,25.16
2018-09-30T08:10:23.659Z,24.84
2018-09-30T08:12:52.881Z,24.88
2018-09-30T08:15:23.114Z,25.03
2018-09-30T08:17:52.148Z,25.33
2018-09-30T08:20:22.994Z,25.27
2018-09-30T08:22:52.074Z,25.18
2018-09-30T08:25:22.643Z,25.37
2018-09-30T08:27:51.596Z,25.44
2018-09-30T08:30:23.836Z,25.73
2018-09-30T08:32:52.825Z,25.79
2018-09-30T08:35:24.105Z,25.58
2018-09-30T08:37:58.252Z,25.54
2018-09-30T08:40:32.543Z,26.00
2018-09-30T08:43:01.605Z,26.60
2018-09-30T08:45:30.821Z,26.97
2018-09-30T08:47:59.906Z,26.47
2018-09-30T08:50:29.432Z,26.77
2018-09-30T08:52:58.366Z,26.97
2018-09-30T08:55:28.561Z,27.20
2018-09-30T08:57:57.583Z,27.27
2018-09-30T09:00:26.742Z,27.88
2018-09-30T09:02:55.774Z,27.97
2018-09-30T09:05:24.839Z,27.65
2018-09-30T09:07:54.156Z,28.03
2018-09-30T09:10:23.528Z,27.26
2018-09-30T09:12:52.478Z,27.51
2018-09-30T09:15:23.236Z,27.08
2018-09-30T09:17:52.672Z,26.61
2018-09-30T09:20:24.055Z,26.34
2018-09-30T09:22:53.470Z,26.73
2018-09-30T09:25:22.839Z,26.31
2018-09-30T09:27:51.971Z,27.28
2018-09-30T09:30:23.621Z,27.08
2018-09-30T09:32:52.641Z,27.89
2018-09-30T09:35:22.575Z,28.42
2018-09-30T09:40:44.771Z,27.88
2018-09-30T09:43:13.792Z,27.66
2018-09-30T09:45:42.934Z,27.23
2018-09-30T09:48:11.901Z,27.94
2018-09-30T09:50:40.892Z,27.96
2018-09-30T09:53:09.870Z,28.85
2018-09-30T09:55:38.851Z,29.06
2018-09-30T09:58:07.964Z,28.33
2018-09-30T10:00:42.087Z,27.67
2018-09-30T10:03:11.139Z,27.65
2018-09-30T10:05:41.177Z,28.15
2018-09-30T10:08:10.213Z,28.14
2018-09-30T10:10:39.867Z,28.56
2018-09-30T10:13:09.283Z,29.30
2018-09-30T10:15:38.292Z,28.60
2018-09-30T10:18:07.334Z,28.81
2018-09-30T10:20:36.900Z,29.39
2018-09-30T10:23:05.995Z,30.02
2018-09-30T10:25:35.541Z,29.46
2018-09-30T10:28:04.662Z,29.47
2018-09-30T10:30:33.766Z,30.21
2018-09-30T10:33:02.865Z,28.61
2018-09-30T10:35:32.419Z,29.24
2018-09-30T10:38:01.511Z,27.91
2018-09-30T10:40:30.728Z,28.75
2018-09-30T10:43:00.143Z,29.67
2018-09-30T10:45:30.009Z,29.99
2018-09-30T10:47:59.082Z,28.87
2018-09-30T10:50:29.284Z,28.75
2018-09-30T10:52:58.393Z,28.98
2018-09-30T10:55:28.050Z,28.77
2018-09-30T10:57:57.516Z,29.06
2018-09-30T11:00:28.525Z,29.54
2018-09-30T11:02:57.622Z,29.51
2018-09-30T11:05:26.815Z,29.12
2018-09-30T11:07:55.976Z,29.55
2018-09-30T11:10:26.248Z,29.25
2018-09-30T11:12:55.279Z,28.68
2018-09-30T11:15:24.206Z,29.03
2018-09-30T11:17:53.615Z,28.06
2018-09-30T11:20:24.324Z,28.43
2018-09-30T11:22:53.446Z,28.31
2018-09-30T11:25:22.505Z,28.33
2018-09-30T11:27:51.921Z,29.19
2018-09-30T11:30:23.681Z,29.81
2018-09-30T11:32:52.660Z,29.05
2018-09-30T11:35:22.450Z,26.91
2018-09-30T11:37:51.748Z,26.77
2018-09-30T11:40:23.915Z,26.64
2018-09-30T11:42:52.916Z,26.51
2018-09-30T11:45:22.715Z,27.14
2018-09-30T11:47:51.715Z,27.64
2018-09-30T11:50:23.480Z,27.89
2018-09-30T11:52:52.487Z,28.19
2018-09-30T11:55:22.814Z,28.68
2018-09-30T11:57:51.842Z,29.15
2018-09-30T12:00:23.565Z,28.77
2018-09-30T12:02:52.717Z,29.25
2018-09-30T12:05:23.390Z,29.14
2018-09-30T12:07:52.438Z,29.48
2018-09-30T12:10:23.293Z,29.08
2018-09-30T12:12:52.392Z,29.08
2018-09-30T12:15:23.429Z,29.20
2018-09-30T12:17:52.501Z,29.97
2018-09-30T12:20:24.136Z,30.16
2018-09-30T12:22:53.249Z,30.07
2018-09-30T12:25:22.433Z,30.32
2018-09-30T12:27:51.505Z,30.68
2018-09-30T12:30:20.737Z,30.92
2018-09-30T12:32:49.980Z,30.51
2018-09-30T12:35:23.065Z,29.02
2018-09-30T12:37:52.153Z,27.59
2018-09-30T12:40:24.210Z,27.97
2018-09-30T12:42:53.212Z,28.53
2018-09-30T12:45:22.148Z,28.92
2018-09-30T12:47:51.569Z,29.05
2018-09-30T12:50:23.329Z,29.66
2018-09-30T12:52:52.714Z,30.27
2018-09-30T12:55:22.160Z,30.47
2018-09-30T12:57:51.254Z,29.93
2018-09-30T13:00:22.924Z,30.13
2018-09-30T13:02:51.887Z,29.66
2018-09-30T13:05:22.816Z,29.98
2018-09-30T13:07:51.831Z,29.92
2018-09-30T13:10:23.733Z,30.14
2018-09-30T13:12:58.064Z,29.49
2018-09-30T13:15:28.524Z,29.60
2018-09-30T13:17:57.824Z,28.87
2018-09-30T13:20:27.349Z,29.18
2018-09-30T13:22:56.433Z,29.32
2018-09-30T13:25:25.562Z,29.57
2018-09-30T13:27:54.532Z,29.62
2018-09-30T13:30:24.333Z,29.35
2018-09-30T13:32:54.212Z,29.60
2018-09-30T13:35:23.320Z,29.61
2018-09-30T13:37:52.514Z,28.73
2018-09-30T13:40:24.557Z,28.54
2018-09-30T13:42:53.621Z,27.70
2018-09-30T13:45:23.067Z,27.46
2018-09-30T13:47:52.063Z,27.72
2018-09-30T13:50:22.629Z,28.10
2018-09-30T13:52:51.745Z,27.86
2018-09-30T13:55:21.596Z,26.90
2018-09-30T13:57:50.654Z,27.12
2018-09-30T14:00:23.127Z,27.30
2018-09-30T14:02:52.172Z,27.43
2018-09-30T14:05:23.895Z,26.53
2018-09-30T14:07:53.054Z,26.07
2018-09-30T14:10:24.226Z,25.70
2018-09-30T14:12:53.406Z,25.40
2018-09-30T14:15:22.549Z,25.14
2018-09-30T14:17:51.608Z,24.98
2018-09-30T14:20:22.765Z,24.97
2018-09-30T14:22:51.973Z,24.79
2018-09-30T14:25:21.565Z,24.74
2018-09-30T14:27:50.717Z,24.65
2018-09-30T14:30:22.650Z,24.51
2018-09-30T14:32:51.816Z,24.46
2018-09-30T14:35:23.333Z,24.41
2018-09-30T14:37:52.480Z,24.38
2018-09-30T14:40:22.601Z,24.26
2018-09-30T14:42:52.006Z,24.08
2018-09-30T14:45:22.256Z,24.07
2018-09-30T14:47:51.609Z,24.09
2018-09-30T14:50:23.207Z,24.02
2018-09-30T14:52:52.219Z,23.82
2018-09-30T14:55:24.707Z,23.84
2018-09-30T14:57:54.017Z,23.78
2018-09-30T15:00:23.142Z,23.79
2018-09-30T15:02:52.265Z,23.73
2018-09-30T15:05:22.723Z,23.61
2018-09-30T15:07:51.703Z,23.45
2018-09-30T15:10:23.958Z,23.48
2018-09-30T15:12:53.405Z,23.48
2018-09-30T15:15:22.495Z,23.41
2018-09-30T15:17:51.648Z,23.25
2018-09-30T15:20:23.121Z,23.32
2018-09-30T15:22:52.554Z,23.29
2018-09-30T15:25:21.815Z,23.27
2018-09-30T15:27:51.095Z,23.21
2018-09-30T15:30:23.283Z,23.10
2018-09-30T15:32:52.645Z,22.99
2018-09-30T15:35:23.260Z,22.79
2018-09-30T15:37:52.290Z,22.68
2018-09-30T15:40:23.128Z,22.85
2018-09-30T15:42:52.233Z,22.93
2018-09-30T15:45:21.140Z,23.04
2018-09-30T15:47:50.064Z,23.04
2018-09-30T15:50:19.195Z,22.95
2018-09-30T15:52:48.204Z,22.96
2018-09-30T15:55:20.519Z,22.97
2018-09-30T15:57:49.824Z,22.87
2018-09-30T16:00:21.823Z,22.81
2018-09-30T16:02:50.871Z,22.64
2018-09-30T16:05:19.896Z,22.74
2018-09-30T16:07:48.906Z,22.86
2018-09-30T16:10:17.988Z,22.89
2018-09-30T16:12:47.018Z,22.91
2018-09-30T16:15:19.382Z,22.86
2018-09-30T16:17:48.692Z,22.77
2018-09-30T16:20:21.529Z,22.72
2018-09-30T16:22:50.571Z,22.50
2018-09-30T16:25:35.274Z,22.18
2018-09-30T16:28:10.108Z,21.91
2018-09-30T16:30:42.982Z,21.63
2018-09-30T16:33:12.173Z,21.45
2018-09-30T16:35:41.909Z,21.30
2018-09-30T16:38:13.536Z,21.28
2018-09-30T16:40:42.604Z,21.20
2018-09-30T16:43:11.843Z,21.18
2018-09-30T16:45:41.547Z,21.38
2018-09-30T16:48:10.756Z,21.48
2018-09-30T16:50:53.438Z,21.33
2018-09-30T16:53:38.388Z,21.54
2018-09-30T16:56:07.812Z,21.43
2018-09-30T16:58:37.046Z,21.34
2018-09-30T17:01:06.175Z,21.21
2018-09-30T17:03:35.196Z,21.09
2018-09-30T17:06:04.252Z,21.20
2018-09-30T17:08:33.788Z,21.45
2018-09-30T17:11:03.440Z,21.31
2018-09-30T17:13:32.374Z,21.27
2018-09-30T17:16:01.780Z,21.42
2018-09-30T17:18:30.937Z,21.61
2018-09-30T17:21:00.414Z,21.87
2018-09-30T17:23:29.781Z,22.03
2018-09-30T17:25:59.400Z,22.13
2018-09-30T17:28:48.773Z,22.16
2018-09-30T17:31:41.176Z,22.13
2018-09-30T17:34:27.317Z,21.98
2018-09-30T17:37:21.108Z,21.82
2018-09-30T17:39:51.021Z,21.71
2018-09-30T17:42:20.181Z,21.60
2018-09-30T17:44:49.975Z,21.54
2018-09-30T17:47:19.485Z,21.42
2018-09-30T17:49:49.212Z,21.28
2018-09-30T17:52:18.188Z,21.20
2018-09-30T17:54:47.490Z,21.03
2018-09-30T17:57:16.769Z,20.89
2018-09-30T17:59:45.788Z,20.82
2018-09-30T18:02:14.813Z,20.71
2018-09-30T18:04:44.054Z,20.62
2018-09-30T18:07:14.485Z,20.54
2018-09-30T18:09:44.057Z,20.43
2018-09-30T18:12:13.358Z,20.36
2018-09-30T18:14:43.054Z,20.28
2018-09-30T18:17:12.875Z,20.21
2018-09-30T18:19:43.225Z,20.08
2018-09-30T18:22:17.052Z,20.03
2018-09-30T18:24:47.317Z,19.71
2018-09-30T18:27:28.246Z,19.37
2018-09-30T18:29:57.564Z,19.22
2018-09-30T18:32:27.032Z,18.95
2018-09-30T18:34:56.072Z,18.63
2018-09-30T18:37:25.254Z,18.37
2018-09-30T18:39:55.284Z,18.30
2018-09-30T18:42:24.624Z,18.08
2018-09-30T18:44:53.631Z,17.78
2018-09-30T18:47:22.628Z,17.75
2018-09-30T18:49:51.822Z,17.68
2018-09-30T18:52:21.189Z,17.89
2018-09-30T18:54:50.199Z,18.36
2018-09-30T18:57:19.352Z,18.55
2018-09-30T18:59:48.417Z,18.53
2018-09-30T19:02:17.887Z,18.28
2018-09-30T19:04:46.874Z,18.07
2018-09-30T19:07:15.979Z,18.11
2018-09-30T19:09:45.352Z,18.00
2018-09-30T19:12:14.598Z,17.87
2018-09-30T19:14:43.638Z,17.77
2018-09-30T19:17:13.116Z,17.78
2018-09-30T19:19:42.388Z,17.73
2018-09-30T19:22:11.578Z,17.86
2018-09-30T19:24:40.610Z,17.88
2018-09-30T19:27:10.058Z,18.62
2018-09-30T19:29:39.082Z,18.83
2018-09-30T19:32:08.171Z,19.04
2018-09-30T19:34:37.236Z,19.24
2018-09-30T19:37:06.394Z,19.41
2018-09-30T19:39:35.563Z,19.54
2018-09-30T19:42:04.797Z,19.51
2018-09-30T19:44:34.104Z,19.37
2018-09-30T19:47:03.200Z,19.09
2018-09-30T19:49:32.334Z,18.91
2018-09-30T19:52:01.763Z,18.63
2018-09-30T19:54:31.443Z,18.63
2018-09-30T19:57:00.643Z,18.83
2018-09-30T19:59:30.157Z,18.95
2018-09-30T20:01:59.281Z,18.90
2018-09-30T20:04:29.061Z,18.66
2018-09-30T20:06:58.140Z,18.59
2018-09-30T20:09:27.688Z,18.53
2018-09-30T20:11:56.796Z,18.41
2018-09-30T20:14:25.876Z,18.23
2018-09-30T20:16:54.984Z,18.09
2018-09-30T20:19:24.008Z,18.20
2018-09-30T20:21:53.707Z,18.18
2018-09-30T20:24:22.798Z,18.08
2018-09-30T20:26:51.795Z,17.82
2018-09-30T20:29:20.717Z,17.59
2018-09-30T20:31:49.764Z,17.36
2018-09-30T20:34:18.893Z,17.21
2018-09-30T20:36:47.876Z,17.15
2018-09-30T20:39:16.804Z,16.96
2018-09-30T20:41:45.936Z,16.73
2018-09-30T20:44:14.932Z,16.42
2018-09-30T20:46:43.908Z,16.12
2018-09-30T20:49:13.497Z,15.95
2018-09-30T20:51:42.528Z,15.68
2018-09-30T20:54:11.829Z,15.82
2018-09-30T20:56:40.873Z,16.07
2018-09-30T20:59:09.942Z,15.98
2018-09-30T21:04:07.229Z,15.86
2018-09-30T21:06:42.220Z,15.89
2018-09-30T21:09:12.865Z,16.15
2018-09-30T21:11:41.875Z,16.26
2018-09-30T21:14:10.912Z,16.48
2018-09-30T21:31:46.868Z,15.53
2018-09-30T21:34:16.431Z,15.80
2018-09-30T21:36:45.551Z,16.12
2018-09-30T21:39:15.626Z,16.36
2018-09-30T21:41:44.636Z,16.25
2018-09-30T21:44:13.666Z,16.18
2018-09-30T21:46:42.857Z,15.90
2018-09-30T21:49:12.029Z,15.54
2018-09-30T21:51:41.480Z,15.25
2018-09-30T21:54:10.660Z,14.92
2018-09-30T21:56:39.748Z,14.64
2018-09-30T21:59:08.920Z,14.77
2018-09-30T22:01:38.094Z,15.51
2018-09-30T22:04:07.148Z,15.57
2018-09-30T22:06:36.143Z,15.51
2018-09-30T22:09:06.066Z,15.41
2018-09-30T22:11:35.129Z,15.10
2018-09-30T22:14:04.294Z,14.75
2018-09-30T22:16:33.354Z,14.46
2018-09-30T22:19:03.277Z,14.18
2018-09-30T22:25:22.436Z,14.26
2018-09-30T22:28:32.569Z,14.21
2018-09-30T22:31:01.596Z,14.19
2018-09-30T22:33:31.438Z,14.17
2018-09-30T22:36:00.518Z,14.18
2018-09-30T22:38:30.292Z,14.35
2018-09-30T22:40:59.310Z,14.86
2018-09-30T22:43:28.822Z,15.11
2018-09-30T22:45:57.918Z,15.36
2018-09-30T22:48:27.551Z,15.23
2018-09-30T22:50:56.751Z,15.13
2018-09-30T22:53:25.828Z,15.36
2018-09-30T22:55:54.936Z,15.38
2018-09-30T22:58:23.988Z,15.21
2018-09-30T23:00:53.433Z,15.16
2018-09-30T23:03:22.619Z,15.18
2018-09-30T23:05:51.640Z,15.40
2018-09-30T23:08:20.764Z,15.60
2018-09-30T23:10:49.846Z,15.69
2018-09-30T23:13:18.981Z,15.57
2018-09-30T23:15:48.392Z,15.41
2018-09-30T23:18:17.645Z,15.48
2018-09-30T23:20:46.858Z,15.47
2018-09-30T23:23:15.980Z,15.26
2018-09-30T23:25:45.055Z,15.10
2018-09-30T23:28:14.245Z,15.19
2018-09-30T23:30:43.624Z,15.11
2018-09-30T23:33:12.800Z,15.01
2018-09-30T23:35:41.906Z,14.91
2018-09-30T23:38:11.093Z,14.81
2018-09-30T23:40:40.292Z,14.64
2018-09-30T23:43:09.536Z,14.53
2018-09-30T23:45:40.021Z,14.36
2018-09-30T23:48:09.144Z,14.23
2018-09-30T23:50:38.333Z,14.20
2018-09-30T23:53:07.847Z,14.14
2018-09-30T23:55:37.056Z,14.18
2018-09-30T23:58:14.624Z,14.19
